Alexandria, Virginia
Current Conditions -  °F | °C
As of 5:52 PM on Friday 31 Oct 2014 (Local Time) from KDCA Reporting Station
Broken Clouds Broken Clouds  
Wind Chill: 56°   Ceiling: 6000
Heat Index: 56°   Visibility: 10mi
Dew Point: 33°   Wind: 8mph
Humidity: 42%   Direction: 60°ENE
Pressure: 29.87"   Gusts: NA
Location:  38.8°N, 77.04°W
Report Text: KDCA 312152Z 06007KT 10SM BKN060 BKN250 13/01 A2987 RMK AO2 SLP115 T01330006
Loading
Personal Weather Stations






























Interactive Weather Map
Tropical Storm Tracking
New forecast layout! Learn more

10-Day Weather Forecast

Advertisements
Track Severe Weather on mobile